Flight Track Log - Related Links

Times and Time Zones

All times are in EDT time to prevent confusion due to time zone crossing. See the EJA834 flight status page for this flight to view local times or setup timezone preferences in your user account.

Time Position Orientation Groundspeed Altitude Reporting Facility
EDT Latitude Longitude Course Direction KTS MPH feet Rate Location/Type
Sat 07:15:28 PM 40.6000 -73.8000 163° South 231 266 2,200  Level New York TRACON
Sat 07:17:17 PM 40.5072 -73.7628 163° South 181 208 7,200 2,911 Climbing New York Center
Sat 07:18:17 PM 40.5656 -73.6722 50° Northeast 225 259 10,400 2,797 Climbing New York Center
Sat 07:19:15 PM 40.6175 -73.5925 49° Northeast 295 339 12,700 2,471 Climbing New York Center
Sat 07:20:16 PM 40.7100 -73.5553 17° North 327 376 15,300 2,066 Climbing New York Center
Sat 07:21:17 PM 40.7914 -73.5531 North 316 364 16,900 843 Climbing New York Center
Sat 07:22:17 PM 40.8864 -73.5872 345° North 331 381 17,000 763 Climbing New York Center
Sat 07:23:15 PM 40.9764 -73.6625 328° Northwest 341 392 18,400 1,513 Climbing New York Center
Sat 07:24:16 PM 41.0517 -73.7261 327° Northwest 347 399 20,000 1,736 Climbing New York Center
Sat 07:25:16 PM 41.1164 -73.8089 316° Northwest 347 399 21,900 992 Climbing New York Center
Sat 07:26:17 PM 41.1172 -73.9300 271° West 304 350 22,000 50 Climbing New York Center
Sat 07:27:16 PM 41.1011 -74.0642 261° West 324 373 22,000  Level New York Center
Sat 07:28:15 PM 41.0783 -74.2061 258° West 348 400 22,000  Level New York Center
Sat 07:29:16 PM 41.0597 -74.3400 260° West 359 413 22,000  Level New York Center
Sat 07:30:17 PM 41.0411 -74.4683 259° West 366 421 22,000  Level New York Center
Sat 07:31:15 PM 41.0203 -74.5992 258° West 371 427 22,000  Level New York Center
Sat 07:32:15 PM 41.0033 -74.7414 261° West 371 427 22,000  Level New York Center
Sat 07:33:17 PM 40.9842 -74.8722 259° West 371 427 22,000  Level New York Center
Sat 07:34:16 PM 40.9586 -75.0053 256° West 371 427 22,000  Level New York Center
Sat 07:35:16 PM 40.9247 -75.1350 251° West 371 427 22,000  Level New York Center
Sat 07:36:17 PM 40.8975 -75.2511 253° West 378 435 22,000  Level New York Center
Sat 07:37:17 PM 40.8694 -75.3811 254° West 378 435 22,000  Level New York Center
Sat 07:38:17 PM 40.8414 -75.5136 254° West 378 435 22,000  Level New York Center
Sat 07:39:18 PM 40.8089 -75.6458 252° West 378 435 22,000  Level New York Center
Sat 07:40:15 PM 40.7786 -75.7750 253° West 378 435 22,000  Level New York Center
Sat 07:41:16 PM 40.7481 -75.8989 252° West 372 428 22,000  Level New York Center
Sat 07:42:17 PM 40.7175 -76.0253 252° West 372 428 22,000  Level New York Center
Sat 07:43:16 PM 40.6869 -76.1544 253° West 372 428 22,000  Level New York Center
Sat 07:44:16 PM 40.6703 -76.2872 261° West 372 428 22,000  Level New York Center
Sat 07:45:17 PM 40.6931 -76.4231 283° West 367 422 22,000  Level New York Center
Sat 07:46:17 PM 40.7133 -76.5617 281° West 372 428 22,000  Level New York Center
Sat 07:47:15 PM 40.7275 -76.6997 278° West 377 434 22,000  Level New York Center
Sat 07:48:15 PM 40.7081 -76.8378 260° West 367 422 22,000  Level New York Center
Sat 07:49:17 PM 40.6883 -76.9731 259° West 377 434 22,000  Level New York Center
Sat 07:50:17 PM 40.6669 -77.1050 258° West 382 440 22,000  Level New York Center
Sat 07:51:15 PM 40.6450 -77.2400 258° West 382 440 22,000  Level New York Center
Sat 07:52:16 PM 40.6244 -77.3856 260° West 382 440 22,000  Level New York Center
Sat 07:53:17 PM 40.6003 -77.5172 256° West 382 440 22,000  Level New York Center
Sat 07:55:36 PM 40.5506 -77.8150 258° West 377 434 22,000  Level Cleveland Center
Sat 07:56:36 PM 40.5267 -77.9469 257° West 372 428 22,000 -650 Level Cleveland Center
Sat 07:57:36 PM 40.5044 -78.0764 257° West 372 428 20,700 -1,650 Descending Cleveland Center
Sat 07:58:36 PM 40.4825 -78.2192 259° West 372 428 18,700 -1,846 Descending Cleveland Center
Sat 07:59:20 PM 40.4678 -78.3125 258° West 346 398 17,500 -1,784 Descending Cleveland Center
Sat 08:00:27 PM 40.4453 -78.4414 257° West 331 381 15,400 -1,890 Descending Cleveland Center
Sat 08:01:27 PM 40.4283 -78.5511 259° West 319 367 13,500 -1,934 Descending Cleveland Center
Sat 08:02:28 PM 40.4056 -78.6717 256° West 309 356 11,500 -1,918 Descending Cleveland Center
Sat 08:03:29 PM 40.3883 -78.7703 257° West 279 321 9,600 -1,983 Descending Cleveland Center
Sat 08:04:29 PM 40.3731 -78.8633 258° West 257 296 7,500 -2,083 Descending Cleveland Center
Sat 08:05:30 PM 40.3558 -78.9619 257° West 260 299 5,400 -1,438 Descending Cleveland Center
Sat 08:06:30 PM 40.3383 -79.0550 256° West 264 304 4,600 -397 Descending Cleveland Center
Sat 08:07:31 PM 40.3292 -79.1506 263° West 269 310 4,600 -492 Level Cleveland Center
Sat 08:08:32 PM 40.3322 -79.2403 273° West 251 289 3,600 -942 Descending Cleveland Center
Sat 08:09:32 PM 40.3311 -79.3247 269° West 202 232 2,700 -744 Descending Cleveland Center
Sat 08:10:33 PM 40.3128 -79.3606 236° Southwest 141 162 2,100 -590 Descending Cleveland Center
Sat 08:12:00 PM 40.2667 -79.4000 270° West  Level FlightAware Approximate
Sat 08:19:00 PM 40.2746 -79.4068 270° West  Level Estimated
Sat 08:20:00 PM 40.2746 -79.4068 270° West  Level Estimated
Sat 08:21:00 PM 40.2746 -79.4068 270° West  Level Estimated
Sat 08:22:00 PM 40.2746 -79.4068 270° West  Level Estimated
Sat 08:23:00 PM 40.2746 -79.4068 270° West  Level Estimated
Sat 08:24:00 PM 40.2746 -79.4068 270° West  Level Estimated
Sat 08:25:00 PM 40.2746 -79.4068 270° West  Level Estimated
Sat 08:26:00 PM 40.2746 -79.4068 270° West  Level Estimated

Login

Don't have an account? Register now (free) for customized features, flight alerts, and more!